Time;durP1;ratioP1;P1;durP2;ratioP2;P2;SDS_P1;SDS_P2;PMS_P1;PMS_P2;Temp;Humidity;BMP_temperature;BMP_pressure;BME280_temperature;BME280_humidity;BME280_pressure;Samples;Min_cycle;Max_cycle;Signal;HPM_P1;HPM_P2
2022/08/17 00:01:03;;;;;;;103.25;96.45;;;;;;;29.27;39.58;100830.88;4920061;29;20131;-75
2022/08/17 00:03:37;;;;;;;102.18;95.10;;;;;;;29.25;39.46;100824.84;4918069;29;20035;-79
2022/08/17 00:06:07;;;;;;;104.55;97.93;;;;;;;29.23;39.58;100821.63;4919232;29;20056;-75
2022/08/17 00:08:35;;;;;;;105.50;98.53;;;;;;;29.21;39.78;100824.81;4918928;29;20043;-76
2022/08/17 00:11:04;;;;;;;106.22;99.40;;;;;;;29.19;39.95;100818.78;4919065;29;20036;-75
2022/08/17 00:13:34;;;;;;;102.78;96.35;;;;;;;29.17;39.70;100817.56;4919410;29;20028;-75
2022/08/17 00:16:06;;;;;;;102.50;95.97;;;;;;;29.14;40.15;100819.09;4919161;29;20035;-75
2022/08/17 00:18:32;;;;;;;102.60;95.88;;;;;;;29.12;40.17;100816.66;4919147;29;20071;-78
2022/08/17 00:20:59;;;;;;;99.45;93.22;;;;;;;29.10;39.69;100815.44;4919229;29;20028;-75
2022/08/17 00:23:25;;;;;;;104.72;97.85;;;;;;;29.08;40.26;100809.44;4917798;29;20036;-75
2022/08/17 00:25:52;;;;;;;101.50;94.90;;;;;;;29.05;39.56;100815.69;4918881;29;20040;-84
2022/08/17 00:28:18;;;;;;;101.00;93.93;;;;;;;29.03;39.78;100812.47;4919173;29;20048;-76
2022/08/17 00:30:46;;;;;;;103.63;96.60;;;;;;;29.01;40.03;100807.28;4918852;29;20040;-75
2022/08/17 00:33:14;;;;;;;97.00;90.72;;;;;;;28.99;40.04;100797.72;4918701;29;20090;-76
2022/08/17 00:35:40;;;;;;;;;;;;;;;28.97;39.60;100798.06;4919367;29;20035;-75
2022/08/17 00:38:08;;;;;;;100.35;93.43;;;;;;;28.95;39.38;100814.31;4918326;29;19915;-75
2022/08/17 00:40:36;;;;;;;99.70;92.18;;;;;;;28.92;39.88;100807.50;4918617;29;20107;-79
2022/08/17 00:43:28;;;;;;;96.97;90.78;;;;;;;28.90;39.56;100793.19;4918581;29;20028;-75
2022/08/17 00:45:53;;;;;;;100.18;93.43;;;;;;;28.89;39.85;100796.31;4918971;29;20083;-79
2022/08/17 00:48:19;;;;;;;99.78;92.85;;;;;;;28.87;40.17;100801.44;4917619;29;20048;-76
2022/08/17 00:51:04;;;;;;;99.90;93.25;;;;;;;28.84;39.74;100789.06;4918486;29;20060;-76
2022/08/17 00:53:33;;;;;;;98.65;92.15;;;;;;;28.83;39.99;100789.47;4918435;29;20512;-76
2022/08/17 00:56:02;;;;;;;101.93;95.28;;;;;;;28.80;40.11;100790.97;4917885;29;20421;-75
2022/08/17 00:58:29;;;;;;;98.57;92.05;;;;;;;28.79;40.09;100792.16;4918347;29;20074;-76
2022/08/17 01:00:54;;;;;;;97.88;91.63;;;;;;;28.77;40.29;100788.13;4918226;29;20124;-86
2022/08/17 01:03:26;;;;;;;96.93;90.72;;;;;;;28.76;40.16;100784.53;4919027;29;20032;-76
2022/08/17 01:05:55;;;;;;;99.05;92.15;;;;;;;28.74;40.30;100783.31;4918666;29;20063;-76
2022/08/17 01:08:24;;;;;;;98.28;91.60;;;;;;;28.71;40.36;100776.50;4918517;29;20064;-75
2022/08/17 01:10:52;;;;;;;100.40;93.93;;;;;;;28.69;40.49;100784.38;4918280;29;20115;-76
2022/08/17 01:13:20;;;;;;;105.13;98.03;;;;;;;28.66;40.27;100780.38;4917845;29;20365;-75
2022/08/17 01:15:52;;;;;;;100.05;93.38;;;;;;;28.66;40.59;100768.44;4918563;29;20035;-75
2022/08/17 01:18:17;;;;;;;97.00;90.18;;;;;;;28.63;40.55;100770.00;4918388;29;20064;-76
2022/08/17 01:20:48;;;;;;;101.18;94.78;;;;;;;28.62;40.56;100767.56;4917970;29;20036;-75
2022/08/17 01:23:14;;;;;;;97.88;91.55;;;;;;;28.59;40.58;100760.75;4917920;29;20036;-75
2022/08/17 01:25:40;;;;;;;100.13;93.72;;;;;;;28.57;40.51;100763.09;4917847;29;20484;-75
2022/08/17 01:28:05;;;;;;;103.47;96.50;;;;;;;28.55;40.28;100757.13;4917775;29;20040;-77
2022/08/17 01:30:31;;;;;;;100.30;93.38;;;;;;;28.54;40.71;100763.03;4917704;29;20179;-76
2022/08/17 01:32:56;;;;;;;100.35;93.72;;;;;;;28.52;40.70;100760.59;4917741;29;20047;-75
2022/08/17 01:35:22;;;;;;;100.03;93.15;;;;;;;28.49;40.76;100758.56;4917361;29;20040;-75
2022/08/17 01:37:47;;;;;;;97.95;91.45;;;;;;;28.48;40.88;100762.53;4917649;29;20169;-77
2022/08/17 01:40:22;;;;;;;100.78;94.18;;;;;;;28.45;40.75;100766.84;4917461;29;20179;-75
2022/08/17 01:42:54;;;;;;;94.40;88.47;;;;;;;28.44;40.62;100764.38;4917627;29;20040;-75
2022/08/17 01:45:30;;;;;;;100.78;94.32;;;;;;;28.41;40.84;100768.69;4918258;29;20111;-76
2022/08/17 01:47:56;;;;;;;97.68;91.25;;;;;;;28.40;40.42;100774.59;4917584;29;20032;-76
2022/08/17 01:50:29;;;;;;;99.30;92.80;;;;;;;28.38;40.56;100766.63;4917222;29;20059;-75
2022/08/17 01:52:58;;;;;;;103.55;96.85;;;;;;;28.35;40.70;100764.59;4917578;29;20028;-76
2022/08/17 01:55:30;;;;;;;96.50;90.20;;;;;;;28.35;40.99;100763.75;4917798;29;20067;-75
2022/08/17 01:57:56;;;;;;;97.82;91.30;;;;;;;28.32;40.97;100756.97;4917927;29;20565;-75
2022/08/17 02:00:21;;;;;;;98.88;92.18;;;;;;;28.31;40.54;100760.13;4916875;29;20056;-75
2022/08/17 02:02:46;;;;;;;99.80;93.28;;;;;;;28.28;40.57;100756.09;4916884;29;20058;-75
2022/08/17 02:05:12;;;;;;;98.35;91.57;;;;;;;28.28;40.85;100758.88;4917004;29;20040;-75
2022/08/17 02:07:38;;;;;;;99.38;90.97;;;;;;;28.25;41.00;100763.19;4917260;29;20400;-77
2022/08/17 02:10:07;;;;;;;97.47;90.15;;;;;;;28.24;41.08;100752.44;4917460;29;20044;-75
2022/08/17 02:12:34;;;;;;;95.22;88.80;;;;;;;28.23;40.92;100753.59;4917585;29;20108;-78
2022/08/17 02:15:00;;;;;;;99.22;92.68;;;;;;;28.21;41.20;100761.50;4916999;29;20044;-76
2022/08/17 02:17:26;;;;;;;96.00;88.18;;;;;;;28.18;41.39;100754.69;4916804;29;20127;-75
2022/08/17 02:19:51;;;;;;;97.50;91.20;;;;;;;28.18;41.00;100762.22;4916052;29;20131;-76
2022/08/17 02:22:17;;;;;;;98.13;91.32;;;;;;;28.15;40.96;100754.59;4916731;29;20489;-76
2022/08/17 02:24:44;;;;;;;98.88;92.10;;;;;;;28.14;41.19;100751.00;4917002;29;20342;-75
2022/08/17 02:27:09;;;;;;;96.70;90.28;;;;;;;28.14;41.22;100758.53;4915679;29;20047;-75
2022/08/17 02:29:36;;;;;;;96.22;89.88;;;;;;;28.12;41.07;100753.34;4917296;29;20036;-75
2022/08/17 02:32:01;;;;;;;97.90;91.18;;;;;;;28.10;41.41;100754.88;4917221;29;20029;-75
2022/08/17 02:34:28;;;;;;;96.72;90.30;;;;;;;28.08;41.15;100751.69;4917080;29;20168;-75
2022/08/17 02:36:54;;;;;;;96.43;90.28;;;;;;;28.05;41.36;100751.22;4917335;29;20039;-75
2022/08/17 02:39:19;;;;;;;102.85;96.10;;;;;;;28.04;41.46;100743.25;4899986;29;20036;-75
2022/08/17 02:41:45;;;;;;;95.47;88.95;;;;;;;28.02;41.51;100743.63;4915626;29;20047;-75
2022/08/17 02:44:10;;;;;;;92.43;86.38;;;;;;;28.01;41.02;100749.53;4916849;29;20032;-76
2022/08/17 02:46:36;;;;;;;97.82;90.93;;;;;;;28.00;41.32;100742.38;4917209;29;20039;-75
2022/08/17 02:49:03;;;;;;;100.38;93.70;;;;;;;27.98;41.69;100742.72;4916833;29;20036;-76
2022/08/17 02:51:28;;;;;;;94.90;88.60;;;;;;;27.97;41.50;100746.69;4916258;29;20056;-76
2022/08/17 02:53:53;;;;;;;96.35;89.90;;;;;;;27.95;41.26;100742.66;4916784;29;20047;-76
2022/08/17 02:56:19;;;;;;;96.35;89.90;;;;;;;27.94;41.72;100735.47;4916969;29;20368;-77
2022/08/17 02:58:45;;;;;;;95.40;89.15;;;;;;;27.91;41.44;100734.22;4916820;29;20064;-75
2022/08/17 03:01:11;;;;;;;99.57;92.70;;;;;;;27.91;41.59;100733.44;4916600;29;20043;-76
2022/08/17 03:03:37;;;;;;;92.25;85.47;;;;;;;27.88;41.31;100740.50;4916709;29;20050;-75
2022/08/17 03:06:04;;;;;;;95.40;89.13;;;;;;;27.87;41.44;100732.53;4917182;29;20032;-78
2022/08/17 03:08:30;;;;;;;95.63;89.10;;;;;;;27.85;41.21;100732.09;4917064;29;20040;-76
2022/08/17 03:10:55;;;;;;;93.45;87.28;;;;;;;27.83;41.58;100729.69;4917458;29;20036;-76
2022/08/17 03:13:21;;;;;;;97.22;91.00;;;;;;;27.81;41.04;100727.25;4920423;29;20047;-76
2022/08/17 03:15:47;;;;;;;93.05;86.28;;;;;;;27.79;41.18;100737.88;4920506;29;20036;-75
2022/08/17 03:18:18;;;;;;;92.18;85.88;;;;;;;27.79;41.31;100742.63;4920194;29;20048;-77
2022/08/17 03:20:44;;;;;;;90.03;84.30;;;;;;;27.75;41.65;100739.78;4920308;29;20500;-76
2022/08/17 03:23:10;;;;;;;95.10;89.13;;;;;;;27.76;41.36;100746.13;4920147;29;20064;-76
2022/08/17 03:25:41;;;;;;;94.70;88.28;;;;;;;27.73;41.44;100749.63;4920502;29;20040;-78
2022/08/17 03:28:08;;;;;;;90.07;84.32;;;;;;;27.72;41.49;100759.09;4919598;29;20024;-76
2022/08/17 03:30:35;;;;;;;92.25;86.07;;;;;;;27.70;41.56;100761.47;4920070;29;20040;-75
2022/08/17 03:33:04;;;;;;;86.80;81.80;;;;;;;27.66;41.06;100764.13;4920195;29;20435;-76
2022/08/17 03:35:30;;;;;;;;;;;;;;;27.63;40.25;100762.88;4920266;29;20063;-76
2022/08/17 03:37:56;;;;;;;82.70;77.50;;;;;;;27.62;40.23;100766.03;4919871;29;19978;-76
2022/08/17 03:40:22;;;;;;;91.07;85.15;;;;;;;27.59;40.52;100773.09;4919771;29;20119;-76
2022/08/17 03:42:51;;;;;;;90.03;83.68;;;;;;;27.58;40.99;100777.00;4920109;29;20072;-76
2022/08/17 03:56:40;;;;;;;92.80;86.80;;;;;;;27.58;41.91;100779.00;4919691;29;20458;-76
2022/08/17 03:56:42;;;;;;;84.97;79.70;;;;;;;27.50;40.88;100791.06;4919776;29;20433;-76
2022/08/17 03:59:16;;;;;;;87.90;82.13;;;;;;;27.49;41.15;100800.53;4919866;29;20036;-76
2022/08/17 04:01:44;;;;;;;87.10;81.63;;;;;;;27.46;41.45;100802.06;4919555;29;20028;-75
2022/08/17 04:04:10;;;;;;;81.43;76.53;;;;;;;27.45;40.97;100803.22;4919468;29;20469;-76
2022/08/17 04:06:36;;;;;;;83.53;78.20;;;;;;;27.43;41.65;100797.22;4919369;29;20036;-76
2022/08/17 04:09:02;;;;;;;90.88;85.10;;;;;;;27.42;41.39;100803.94;4919675;29;20036;-77
2022/08/17 04:11:27;;;;;;;86.65;81.07;;;;;;;27.41;41.35;100805.91;4918979;29;20036;-76
2022/08/17 04:13:53;;;;;;;84.25;78.60;;;;;;;27.40;41.55;100792.41;4918034;29;20492;-76
2022/08/17 04:16:19;;;;;;;86.28;80.70;;;;;;;27.38;41.59;100792.75;4919147;29;20036;-76
2022/08/17 04:18:44;;;;;;;83.72;78.40;;;;;;;27.36;41.41;100797.03;4919313;29;20052;-77
2022/08/17 04:21:09;;;;;;;83.65;78.47;;;;;;;27.34;40.88;100804.91;4919478;29;20048;-76
2022/08/17 04:23:36;;;;;;;87.43;82.10;;;;;;;27.33;41.61;100808.84;4919016;29;20480;-76
2022/08/17 04:26:02;;;;;;;86.15;80.95;;;;;;;27.31;41.11;100811.97;4919287;29;20032;-76
2022/08/17 04:28:29;;;;;;;83.65;78.32;;;;;;;27.30;41.69;100807.59;4917938;29;20383;-77
2022/08/17 04:30:55;;;;;;;87.55;82.05;;;;;;;27.30;41.65;100812.34;4918895;29;20040;-76
2022/08/17 04:33:23;;;;;;;84.60;79.35;;;;;;;27.29;41.83;100835.66;4917314;29;20032;-77
2022/08/17 04:35:52;;;;;;;81.97;76.88;;;;;;;27.26;41.73;100837.19;4918807;29;20058;-76
2022/08/17 04:38:21;;;;;;;85.93;80.28;;;;;;;27.25;41.74;100818.16;4918556;29;20055;-77
2022/08/17 04:43:33;;;;;;;86.25;80.82;;;;;;;27.19;41.98;100829.50;4918729;29;20047;-77
2022/08/17 04:46:01;;;;;;;81.88;76.53;;;;;;;27.18;41.94;100814.00;4918661;29;20055;-78
2022/08/17 04:48:31;;;;;;;84.53;79.43;;;;;;;27.17;41.80;100826.22;4918654;29;20056;-79
2022/08/17 04:50:57;;;;;;;85.22;80.13;;;;;;;27.16;42.02;100824.59;4918649;29;20056;-77
2022/08/17 04:53:23;;;;;;;83.80;78.20;;;;;;;27.15;41.79;100822.19;4918840;29;20040;-77
2022/08/17 04:55:51;;;;;;;85.88;80.60;;;;;;;27.14;41.84;100835.25;4917321;29;20039;-82
2022/08/17 04:58:17;;;;;;;86.15;80.78;;;;;;;27.12;41.77;100836.78;4918862;29;20035;-79
2022/08/17 05:00:42;;;;;;;81.50;76.13;;;;;;;27.11;41.64;100835.13;4918210;29;20388;-78
2022/08/17 05:03:08;;;;;;;82.57;77.45;;;;;;;27.10;42.14;100836.31;4918367;29;20473;-79
2022/08/17 05:05:37;;;;;;;85.93;80.60;;;;;;;27.08;42.14;100835.84;4918275;29;20036;-77
2022/08/17 05:08:05;;;;;;;83.03;77.57;;;;;;;27.06;42.03;100840.94;4918681;29;20032;-76
2022/08/17 05:10:34;;;;;;;85.65;80.40;;;;;;;27.05;42.05;100834.59;4916873;29;20059;-75
2022/08/17 05:13:12;;;;;;;84.28;78.57;;;;;;;27.03;41.74;100836.09;4918066;29;20110;-76
2022/08/17 05:15:39;;;;;;;83.60;78.25;;;;;;;27.02;41.98;100835.31;4918637;29;20028;-76
2022/08/17 05:18:05;;;;;;;83.38;78.07;;;;;;;27.00;41.63;100828.50;4918504;29;20048;-77
2022/08/17 05:20:32;;;;;;;83.05;77.85;;;;;;;26.97;41.58;100830.81;4917607;29;20469;-78
2022/08/17 05:23:03;;;;;;;81.93;76.63;;;;;;;26.96;42.24;100828.38;4918261;29;20465;-77
2022/08/17 05:25:31;;;;;;;81.60;76.50;;;;;;;26.95;41.84;100824.00;4917168;29;20127;-77
2022/08/17 05:27:57;;;;;;;82.18;76.97;;;;;;;26.94;41.83;100816.88;4917892;29;20461;-77
2022/08/17 05:30:23;;;;;;;85.00;79.43;;;;;;;26.91;42.11;100818.38;4917708;29;20385;-77
2022/08/17 05:32:54;;;;;;;82.80;77.35;;;;;;;26.90;41.94;100815.94;4916636;29;20051;-78
2022/08/17 05:35:20;;;;;;;84.07;78.60;;;;;;;26.88;41.87;100810.75;4917114;29;20071;-78
2022/08/17 05:37:45;;;;;;;82.63;77.45;;;;;;;26.87;42.09;100817.44;4918495;29;20084;-77
2022/08/17 05:40:11;;;;;;;85.65;80.25;;;;;;;26.85;41.38;100813.41;4917483;29;20037;-77
2022/08/17 05:42:36;;;;;;;86.00;80.55;;;;;;;26.84;41.59;100814.56;4917646;29;20039;-77
2022/08/17 05:45:03;;;;;;;83.78;78.47;;;;;;;26.82;42.29;100809.38;4917632;29;20036;-77
2022/08/17 05:47:29;;;;;;;82.65;77.50;;;;;;;26.81;41.86;100813.28;4917432;29;20039;-79
2022/08/17 05:49:55;;;;;;;83.30;77.90;;;;;;;26.80;42.25;100824.75;4916279;29;20040;-78
2022/08/17 05:52:45;;;;;;;82.72;77.43;;;;;;;26.80;41.58;100835.84;4915888;29;20064;-79
2022/08/17 05:55:27;;;;;;;81.53;76.32;;;;;;;26.75;41.97;100837.69;4917384;29;20064;-78
2022/08/17 05:58:11;;;;;;;82.72;77.32;;;;;;;26.74;42.01;100838.84;4916715;29;20123;-78
2022/08/17 06:00:59;;;;;;;79.15;74.07;;;;;;;26.74;41.84;100851.91;4917993;29;20479;-77
2022/08/17 06:03:41;;;;;;;79.75;74.28;;;;;;;26.73;42.30;100850.28;4917522;29;20039;-77
2022/08/17 06:06:31;;;;;;;82.38;77.00;;;;;;;26.71;42.32;100849.81;4917280;29;20032;-79
2022/08/17 06:09:23;;;;;;;81.20;76.15;;;;;;;26.70;42.54;100851.78;4917552;29;20362;-78
2022/08/17 06:12:06;;;;;;;77.82;73.03;;;;;;;26.68;42.36;100847.75;4917518;29;20051;-75
2022/08/17 06:14:57;;;;;;;79.38;73.93;;;;;;;26.66;42.61;100848.13;4917228;29;20039;-75
2022/08/17 06:17:25;;;;;;;75.88;70.97;;;;;;;26.66;42.53;100838.97;4914500;29;20123;-76
2022/08/17 06:19:58;;;;;;;78.03;73.22;;;;;;;26.66;42.62;100841.75;4917252;29;20038;-75
2022/08/17 06:22:28;;;;;;;74.90;70.30;;;;;;;26.64;43.05;100847.66;4917792;29;20032;-76
2022/08/17 06:25:00;;;;;;;78.22;73.38;;;;;;;26.62;42.46;100849.97;4917270;29;20032;-76
2022/08/17 06:27:31;;;;;;;79.03;73.93;;;;;;;26.62;42.62;100849.97;4917483;29;20043;-75
2022/08/17 06:30:19;;;;;;;78.55;73.40;;;;;;;26.61;42.49;100862.22;4917615;29;20051;-74
2022/08/17 06:32:47;;;;;;;74.75;70.45;;;;;;;26.59;42.31;100856.22;4917350;29;20032;-75
2022/08/17 06:35:17;;;;;;;79.10;74.32;;;;;;;26.59;42.84;100855.41;4917557;29;20028;-75
2022/08/17 06:38:11;;;;;;;79.03;74.22;;;;;;;26.57;42.28;100863.25;4917179;29;20036;-78
2022/08/17 06:41:03;;;;;;;79.18;74.07;;;;;;;26.56;42.66;100870.75;4917447;29;20123;-76
2022/08/17 06:44:19;;;;;;;77.13;72.32;;;;;;;26.54;42.79;100857.25;4917499;29;20401;-74
2022/08/17 06:46:56;;;;;;;77.00;72.32;;;;;;;26.53;42.71;100857.59;4918097;29;20044;-79
2022/08/17 06:49:31;;;;;;;77.85;73.15;;;;;;;26.51;42.73;100863.47;4920329;29;20028;-74
2022/08/17 06:52:05;;;;;;;77.07;72.10;;;;;;;26.51;42.62;100871.75;4921090;29;20478;-75
2022/08/17 06:54:48;;;;;;;77.55;72.28;;;;;;;26.51;43.09;100876.47;4920494;29;20479;-73
2022/08/17 06:57:22;;;;;;;74.13;69.35;;;;;;;26.50;42.79;100888.72;4919992;29;20036;-74
2022/08/17 06:59:56;;;;;;;75.47;70.53;;;;;;;26.51;42.81;100890.31;4920421;29;20059;-73
2022/08/17 07:02:27;;;;;;;76.10;71.53;;;;;;;26.50;43.11;100894.25;4919680;29;20067;-74
2022/08/17 07:04:53;;;;;;;79.68;74.97;;;;;;;26.49;42.98;100895.44;4920019;29;20047;-74
2022/08/17 07:10:06;;;;;;;75.03;70.18;;;;;;;26.47;43.40;100897.72;4920556;29;20099;-74
2022/08/17 07:12:37;;;;;;;;;;;;;;;26.46;42.59;100899.69;4920317;29;20035;-73
2022/08/17 07:15:21;;;;;;;74.43;69.80;;;;;;;26.46;42.88;100896.09;4919750;29;19915;-74
2022/08/17 07:17:47;;;;;;;77.30;72.50;;;;;;;26.43;42.58;100892.06;4919852;29;20032;-73
2022/08/17 07:20:21;;;;;;;72.53;67.93;;;;;;;26.43;42.63;100900.38;4920291;29;20445;-75
2022/08/17 07:23:20;;;;;;;77.40;72.80;;;;;;;26.43;42.72;100900.38;4919352;29;20112;-74
2022/08/17 07:25:46;;;;;;;74.55;70.07;;;;;;;26.41;43.08;100901.88;4920588;29;20119;-73
2022/08/17 07:28:11;;;;;;;75.10;70.47;;;;;;;26.41;43.31;100910.19;4919600;29;20118;-76
2022/08/17 07:30:48;;;;;;;74.35;69.80;;;;;;;26.42;43.53;100911.81;4919812;29;20378;-72
2022/08/17 07:33:23;;;;;;;72.70;68.13;;;;;;;26.41;43.40;100918.50;4919565;29;20441;-73
2022/08/17 07:35:49;;;;;;;70.93;66.90;;;;;;;26.40;43.34;100922.44;4919298;29;20040;-78
2022/08/17 07:38:14;;;;;;;74.25;69.95;;;;;;;26.40;43.02;100920.47;4919301;29;20476;-74
2022/08/17 07:41:01;;;;;;;74.68;69.95;;;;;;;26.40;42.80;100925.19;4918910;29;20524;-73
2022/08/17 07:43:38;;;;;;;75.72;71.20;;;;;;;26.39;43.11;100926.38;4919714;29;20059;-74
2022/08/17 07:48:57;;;;;;;71.10;66.47;;;;;;;26.37;42.67;100929.47;4919296;29;20036;-75
2022/08/17 07:51:47;;;;;;;76.10;71.72;;;;;;;26.37;42.76;100925.91;4919156;29;20056;-74
2022/08/17 07:54:15;;;;;;;71.47;67.47;;;;;;;26.35;43.16;100917.91;4919109;29;20040;-79
2022/08/17 07:56:43;;;;;;;;;;;;;;;26.34;42.37;100914.34;4918880;29;20039;-75
2022/08/17 07:59:14;;;;;;;;;;;;;;;26.33;41.79;100923.81;4919667;29;20435;-75
2022/08/17 08:01:44;;;;;;;69.65;65.47;;;;;;;26.32;42.76;100927.72;4919410;29;20279;-76
2022/08/17 08:04:26;;;;;;;72.60;67.78;;;;;;;26.29;44.07;100931.19;4917827;29;20028;-77
2022/08/17 08:06:53;;;;;;;71.30;67.10;;;;;;;26.27;44.25;100927.94;4919552;29;20384;-77
2022/08/17 08:09:34;;;;;;;72.82;68.43;;;;;;;26.27;44.87;100927.16;4918685;29;20040;-74
2022/08/17 08:12:28;;;;;;;69.13;65.22;;;;;;;26.26;44.57;100929.13;4919776;29;20120;-75
2022/08/17 08:15:00;;;;;;;71.13;67.03;;;;;;;26.27;44.84;100921.63;4918858;29;20032;-73
2022/08/17 08:17:34;;;;;;;69.82;65.95;;;;;;;26.26;44.55;100920.81;4918859;29;20062;-73
2022/08/17 08:20:01;;;;;;;74.07;70.15;;;;;;;26.27;44.03;100932.69;4919551;29;20055;-76
2022/08/17 08:22:37;;;;;;;72.47;68.43;;;;;;;26.26;44.44;100929.13;4918678;29;20064;-81
2022/08/17 08:25:41;;;;;;;71.85;67.75;;;;;;;26.28;43.96;100928.75;4919275;29;20032;-74
2022/08/17 08:28:43;;;;;;;67.60;63.85;;;;;;;26.28;43.88;100926.00;4901220;29;20517;-78
2022/08/17 08:31:19;;;;;;;68.25;64.30;;;;;;;26.29;44.13;100925.66;4919004;29;20461;-75
2022/08/17 08:34:18;;;;;;;69.15;65.15;;;;;;;26.29;43.95;100919.31;4918398;29;20531;-75
2022/08/17 08:36:49;;;;;;;70.35;66.15;;;;;;;26.29;43.76;100916.53;4918360;29;20481;-75
2022/08/17 08:39:30;;;;;;;69.53;65.75;;;;;;;26.28;43.51;100921.28;4918303;29;20485;-74
2022/08/17 08:42:14;;;;;;;67.90;63.85;;;;;;;26.28;43.33;100931.53;4918500;29;20036;-75
2022/08/17 08:44:48;;;;;;;66.45;62.88;;;;;;;26.28;43.10;100934.28;4918633;29;20080;-75
2022/08/17 08:47:43;;;;;;;67.30;63.70;;;;;;;26.29;43.57;100933.16;4918544;29;20036;-78
2022/08/17 08:50:39;;;;;;;65.10;61.40;;;;;;;26.28;43.26;100917.69;4915613;29;20048;-80
2022/08/17 08:53:23;;;;;;;71.93;68.13;;;;;;;26.29;43.65;100920.13;4918629;29;20456;-76
2022/08/17 08:55:58;;;;;;;68.80;64.88;;;;;;;26.29;43.58;100917.34;4918136;29;20497;-75
2022/08/17 08:58:29;;;;;;;67.45;63.85;;;;;;;26.30;43.95;100923.69;4918708;29;20063;-76
2022/08/17 09:00:57;;;;;;;69.20;65.60;;;;;;;26.30;43.28;100930.03;4917372;29;20040;-75
2022/08/17 09:03:22;;;;;;;67.17;63.37;;;;;;;26.31;43.27;100937.19;4918496;29;20068;-77
2022/08/17 09:05:57;;;;;;;74.70;70.60;;;;;;;26.32;42.78;100943.53;4918154;29;20070;-74
2022/08/17 09:09:02;;;;;;;69.68;65.88;;;;;;;26.33;43.42;100951.50;4917184;29;20028;-73
2022/08/17 09:11:57;;;;;;;67.63;63.58;;;;;;;26.32;43.44;100941.56;4917945;29;20392;-74
2022/08/17 09:14:45;;;;;;;67.63;63.72;;;;;;;26.33;43.62;100950.69;4917504;29;20457;-73
2022/08/17 09:17:11;;;;;;;;;;;;;;;26.33;42.69;100942.38;4918109;29;20476;-74
2022/08/17 09:20:00;;;;;;;69.90;65.80;;;;;;;26.34;43.28;100939.28;4917591;29;19998;-75
2022/08/17 09:22:37;;;;;;;68.68;64.72;;;;;;;26.34;43.90;100955.09;4917244;29;20108;-75
2022/08/17 09:25:19;;;;;;;68.38;64.47;;;;;;;26.36;44.19;100957.50;4917659;29;20040;-74
2022/08/17 09:28:02;;;;;;;74.72;70.63;;;;;;;26.36;43.75;100966.63;4917932;29;20036;-74
2022/08/17 09:30:47;;;;;;;69.55;65.65;;;;;;;26.37;43.48;100975.75;5083455;27;20927;-75
2022/08/17 09:33:17;;;;;;;68.95;65.13;;;;;;;26.39;43.85;100978.97;5079571;28;20059;-76
2022/08/17 09:36:04;;;;;;;69.88;65.97;;;;;;;26.40;44.31;100977.81;5084631;28;20107;-77
2022/08/17 09:39:12;;;;;;;74.40;70.35;;;;;;;26.41;44.28;100974.72;5082472;28;20395;-75
2022/08/17 09:41:40;;;;;;;69.93;66.15;;;;;;;26.41;44.22;100976.66;5016878;28;20037;-75
2022/08/17 09:44:15;;;;;;;71.63;67.68;;;;;;;26.42;43.62;100978.28;5021401;28;20096;-74
2022/08/17 09:46:57;;;;;;;69.57;65.63;;;;;;;26.43;43.26;100969.63;5055949;28;20091;-75
2022/08/17 09:49:48;;;;;;;72.75;68.75;;;;;;;26.45;43.69;100981.16;5080046;28;20024;-75
2022/08/17 09:52:20;;;;;;;69.70;65.97;;;;;;;26.45;44.12;100980.38;5081153;28;20032;-76
2022/08/17 09:54:47;;;;;;;68.53;64.82;;;;;;;26.47;44.38;100989.94;5079316;28;20024;-75
2022/08/17 09:57:22;;;;;;;70.63;66.70;;;;;;;26.47;44.17;100998.25;5084624;28;20103;-75
2022/08/17 10:02:53;;;;;;;71.60;67.07;;;;;;;26.49;44.50;101011.78;5077420;28;20036;-75
2022/08/17 10:05:56;;;;;;;71.97;67.88;;;;;;;26.50;44.68;101022.50;5076549;28;20032;-77
2022/08/17 10:08:21;;;;;;;71.15;66.75;;;;;;;26.50;44.48;101019.72;5079998;28;20042;-79
2022/08/17 10:10:59;;;;;;;69.88;65.97;;;;;;;26.52;44.49;101024.94;5082329;28;20460;-77
2022/08/17 10:13:45;;;;;;;72.32;67.95;;;;;;;26.52;44.54;101025.75;5084076;28;20040;-76
2022/08/17 10:16:16;;;;;;;74.78;70.50;;;;;;;26.53;44.67;101021.03;5080886;28;20131;-76
2022/08/17 10:18:50;;;;;;;74.13;69.63;;;;;;;26.54;44.82;101019.88;5081279;28;20562;-75
2022/08/17 10:26:53;;;;;;;74.28;69.22;;;;;;;26.55;45.07;101002.09;5083154;28;20120;-78
2022/08/17 10:29:26;;;;;;;70.72;66.53;;;;;;;26.56;45.34;100992.66;5082671;28;20049;-77
2022/08/17 10:31:59;;;;;;;72.63;68.30;;;;;;;26.57;45.89;100997.03;5076956;28;20033;-76
2022/08/17 10:34:31;;;;;;;71.97;67.20;;;;;;;26.58;45.50;101003.38;5084210;28;20094;-76
2022/08/17 10:37:14;;;;;;;73.65;69.35;;;;;;;26.57;46.05;101002.56;5081644;28;20028;-76
2022/08/17 10:39:58;;;;;;;71.63;67.63;;;;;;;26.58;46.01;101000.59;5080235;28;20161;-77
2022/08/17 10:42:34;;;;;;;74.45;70.35;;;;;;;26.58;45.84;101001.41;5068192;28;20476;-76
2022/08/17 10:45:14;;;;;;;73.90;69.72;;;;;;;26.59;45.84;100999.47;5070971;28;20029;-75
2022/08/17 10:48:00;;;;;;;73.55;69.35;;;;;;;26.59;46.00;101003.03;5069117;28;20400;-76
2022/08/17 10:50:46;;;;;;;72.32;68.18;;;;;;;26.59;46.46;101000.28;5064786;28;20494;-75
2022/08/17 10:53:32;;;;;;;72.85;68.45;;;;;;;26.59;46.73;101007.78;5068292;28;20120;-75
2022/08/17 10:56:13;;;;;;;73.88;69.55;;;;;;;26.59;46.51;100996.69;5053850;28;20052;-74
2022/08/17 10:58:53;;;;;;;74.20;70.05;;;;;;;26.59;46.41;101003.03;5066414;28;20115;-73
2022/08/17 11:01:30;;;;;;;73.70;69.40;;;;;;;26.59;46.48;101002.22;5068380;28;20032;-73
2022/08/17 11:04:00;;;;;;;76.45;71.45;;;;;;;26.59;46.65;101005.00;5067867;28;20058;-75
2022/08/17 11:06:43;;;;;;;78.53;73.97;;;;;;;26.60;46.23;101003.84;5066411;28;20020;-74
2022/08/17 11:09:21;;;;;;;72.88;68.53;;;;;;;26.58;46.24;101004.19;5065947;28;20037;-74
2022/08/17 11:12:05;;;;;;;75.57;70.87;;;;;;;26.57;46.13;100996.22;5068370;28;20118;-74
2022/08/17 11:14:30;;;;;;;71.68;67.07;;;;;;;26.56;46.19;100987.13;5060585;28;20029;-74
2022/08/17 11:17:35;;;;;;;75.93;71.22;;;;;;;26.56;45.44;100984.34;5064915;28;20032;-74
2022/08/17 11:20:06;;;;;;;73.60;68.82;;;;;;;26.56;45.85;100976.03;5061014;28;20550;-74
2022/08/17 11:22:48;;;;;;;75.32;70.47;;;;;;;26.55;45.77;100971.63;5063956;28;20067;-74
2022/08/17 11:25:17;;;;;;;73.68;69.35;;;;;;;26.54;45.68;100968.06;5062702;28;20048;-74
2022/08/17 11:27:52;;;;;;;75.93;71.22;;;;;;;26.54;45.77;100970.03;5065376;28;20032;-74
2022/08/17 11:30:42;;;;;;;77.18;72.38;;;;;;;26.54;45.86;100975.56;5066870;28;20052;-74
2022/08/17 11:33:32;;;;;;;77.72;73.10;;;;;;;26.54;46.26;100979.13;5064181;28;20033;-74
2022/08/17 11:36:13;;;;;;;75.03;70.50;;;;;;;26.53;46.36;100988.63;5062042;28;20973;-74
2022/08/17 11:39:14;;;;;;;74.55;70.15;;;;;;;26.53;46.23;100996.09;5067470;28;20104;-74
2022/08/17 11:42:08;;;;;;;75.85;70.97;;;;;;;26.52;46.66;100998.06;5066921;28;20032;-75
2022/08/17 11:44:57;;;;;;;78.43;74.03;;;;;;;26.51;46.03;101001.13;5065385;28;20554;-73
2022/08/17 11:53:38;;;;;;;75.95;70.95;;;;;;;26.49;46.05;100995.94;5060347;28;20445;-76
2022/08/17 11:56:08;;;;;;;76.50;71.60;;;;;;;26.49;46.41;100998.72;5062884;28;20047;-76
2022/08/17 11:58:44;;;;;;;74.88;69.90;;;;;;;26.49;45.73;100995.16;5065770;28;20097;-75
2022/08/17 12:01:35;;;;;;;78.85;74.05;;;;;;;26.49;46.59;101000.69;5057699;28;20074;-78
2022/08/17 12:04:28;;;;;;;75.45;70.85;;;;;;;26.49;46.37;101014.53;5063202;28;20531;-79
2022/08/17 12:07:20;;;;;;;72.78;68.05;;;;;;;26.49;46.94;101020.09;5062014;28;20033;-76
2022/08/17 12:09:50;;;;;;;75.55;71.05;;;;;;;26.47;46.73;101017.66;5066886;28;20039;-76